createdAt,value
2018-12-29T00:00:02.187Z,-0.64
2018-12-29T00:01:01.971Z,-0.64
2018-12-29T00:02:02.147Z,-0.67
2018-12-29T00:03:01.930Z,-0.66
2018-12-29T00:04:01.976Z,-0.65
2018-12-29T00:05:01.712Z,-0.66
2018-12-29T00:06:02.091Z,-0.59
2018-12-29T00:07:01.897Z,-0.61
2018-12-29T00:08:01.765Z,-0.66
2018-12-29T00:09:02.181Z,-0.61
2018-12-29T00:10:02.101Z,-0.62
2018-12-29T00:11:01.865Z,-0.64
2018-12-29T00:12:01.675Z,-0.62
2018-12-29T00:13:01.835Z,-0.62
2018-12-29T00:14:01.758Z,-0.55
2018-12-29T00:15:01.952Z,-0.58
2018-12-29T00:16:02.208Z,-0.63
2018-12-29T00:17:02.517Z,-0.56
2018-12-29T00:18:01.711Z,-0.59
2018-12-29T00:19:01.759Z,-0.56
2018-12-29T00:20:01.880Z,-0.6
2018-12-29T00:21:01.717Z,-0.56
2018-12-29T00:22:01.706Z,-0.57
2018-12-29T00:23:01.887Z,-0.58
2018-12-29T00:24:01.654Z,-0.57
2018-12-29T00:25:02.089Z,-0.66
2018-12-29T00:26:02.060Z,-0.62
2018-12-29T00:27:02.174Z,-0.67
2018-12-29T00:28:01.695Z,-0.61
2018-12-29T00:29:01.790Z,-0.58
2018-12-29T00:30:01.837Z,-0.59
2018-12-29T00:31:01.793Z,-0.67
2018-12-29T00:32:01.679Z,-0.69
2018-12-29T00:33:01.721Z,-0.7
2018-12-29T00:34:01.683Z,-0.63
2018-12-29T00:35:01.717Z,-0.73
2018-12-29T00:36:01.739Z,-0.77
2018-12-29T00:37:02.278Z,-0.69
2018-12-29T00:38:02.130Z,-0.7
2018-12-29T00:39:01.642Z,-0.64
2018-12-29T00:40:01.698Z,-0.7
2018-12-29T00:41:01.763Z,-0.67
2018-12-29T00:42:01.683Z,-0.74
2018-12-29T00:43:01.662Z,-0.73
2018-12-29T00:44:01.989Z,-0.7
2018-12-29T00:45:03.244Z,-0.67
2018-12-29T00:46:01.758Z,-0.68
2018-12-29T00:47:01.685Z,-0.73
2018-12-29T00:48:01.637Z,-0.72
2018-12-29T00:49:01.895Z,-0.68
2018-12-29T00:50:01.681Z,-0.67
2018-12-29T00:51:01.738Z,-0.65
2018-12-29T00:52:01.644Z,-0.63
2018-12-29T00:53:01.727Z,-0.62
2018-12-29T00:54:01.635Z,-0.6
2018-12-29T00:55:02.105Z,-0.63
2018-12-29T00:56:01.584Z,-0.62
2018-12-29T00:57:01.826Z,-0.6
2018-12-29T00:58:01.622Z,-0.62
2018-12-29T00:59:01.706Z,-0.66
2018-12-29T01:00:02.156Z,-0.63
2018-12-29T01:01:01.503Z,-0.64
2018-12-29T01:02:02.678Z,-0.67
2018-12-29T01:03:01.702Z,-0.66
2018-12-29T01:04:01.771Z,-0.64
2018-12-29T01:05:01.901Z,-0.67
2018-12-29T01:06:01.792Z,-0.66
2018-12-29T01:07:02.259Z,-0.64
2018-12-29T01:08:02.302Z,-0.65
2018-12-29T01:09:02.938Z,-0.67
2018-12-29T01:10:02.052Z,-0.67
2018-12-29T01:11:01.719Z,-0.73
2018-12-29T01:12:01.865Z,-0.69
2018-12-29T01:13:01.673Z,-0.74
2018-12-29T01:14:01.691Z,-0.73
2018-12-29T01:15:01.960Z,-0.73
2018-12-29T01:16:01.965Z,-0.73
2018-12-29T01:17:01.748Z,-0.7
2018-12-29T01:18:01.754Z,-0.69
2018-12-29T01:19:01.739Z,-0.69
2018-12-29T01:20:01.940Z,-0.7
2018-12-29T01:21:01.604Z,-0.7
2018-12-29T01:22:01.704Z,-0.7
2018-12-29T01:23:01.640Z,-0.72
2018-12-29T01:24:01.838Z,-0.7
2018-12-29T01:25:02.299Z,-0.72
2018-12-29T01:26:01.936Z,-0.69
2018-12-29T01:27:01.838Z,-0.7
2018-12-29T01:28:01.879Z,-0.69
2018-12-29T01:29:01.821Z,-0.7
2018-12-29T01:30:02.406Z,-0.72
2018-12-29T01:31:01.588Z,-0.67
2018-12-29T01:32:01.858Z,-0.66
2018-12-29T01:33:01.624Z,-0.69
2018-12-29T01:34:01.852Z,-0.7
2018-12-29T01:35:02.786Z,-0.69
2018-12-29T01:36:01.592Z,-0.72
2018-12-29T01:37:02.124Z,-0.71
2018-12-29T01:38:02.107Z,-0.71
2018-12-29T01:39:01.911Z,-0.68
2018-12-29T01:40:02.044Z,-0.66
2018-12-29T01:41:01.605Z,-0.71
2018-12-29T01:42:02.201Z,-0.72
2018-12-29T01:43:01.856Z,-0.73
2018-12-29T01:44:01.601Z,-0.73
2018-12-29T01:45:01.604Z,-0.76
2018-12-29T01:46:01.680Z,-0.74
2018-12-29T01:47:01.682Z,-0.74
2018-12-29T01:48:01.798Z,-0.71
2018-12-29T01:49:01.918Z,-0.7
2018-12-29T01:50:02.409Z,-0.8
2018-12-29T01:51:01.612Z,-0.9
2018-12-29T01:52:01.860Z,-0.86
2018-12-29T01:53:02.011Z,-0.85
2018-12-29T01:54:01.778Z,-0.9
2018-12-29T01:55:01.781Z,-0.85
2018-12-29T01:56:01.933Z,-0.85
2018-12-29T01:57:01.909Z,-0.85
2018-12-29T01:58:01.616Z,-0.82
2018-12-29T01:59:01.561Z,-0.8
2018-12-29T02:00:01.585Z,-0.81
2018-12-29T02:01:01.632Z,-0.81
2018-12-29T02:02:02.753Z,-0.85
2018-12-29T02:03:01.568Z,-0.83
2018-12-29T02:04:01.596Z,-0.83
2018-12-29T02:05:01.941Z,-0.82
2018-12-29T02:06:01.726Z,-0.82
2018-12-29T02:07:01.544Z,-0.85
2018-12-29T02:08:01.658Z,-0.84
2018-12-29T02:09:01.798Z,-0.88
2018-12-29T02:10:01.583Z,-0.88
2018-12-29T02:11:01.604Z,-0.93
2018-12-29T02:12:01.808Z,-0.95
2018-12-29T02:13:01.658Z,-0.89
2018-12-29T02:14:01.698Z,-0.86
2018-12-29T02:15:01.754Z,-0.88
2018-12-29T02:16:02.022Z,-0.91
2018-12-29T02:17:01.671Z,-0.89
2018-12-29T02:18:01.653Z,-0.9
2018-12-29T02:19:01.519Z,-0.9
2018-12-29T02:20:01.905Z,-0.93
2018-12-29T02:21:01.561Z,-0.92
2018-12-29T02:22:01.677Z,-0.93
2018-12-29T02:23:01.594Z,-0.97
2018-12-29T02:24:01.501Z,-0.98
2018-12-29T02:25:01.595Z,-0.95
2018-12-29T02:26:01.685Z,-0.96
2018-12-29T02:27:01.574Z,-0.95
2018-12-29T02:28:01.746Z,-1.01
2018-12-29T02:29:01.522Z,-0.97
2018-12-29T02:30:01.746Z,-0.96
2018-12-29T02:31:02.130Z,-0.96
2018-12-29T02:32:01.760Z,-1.01
2018-12-29T02:33:01.598Z,-0.96
2018-12-29T02:34:01.910Z,-0.93
2018-12-29T02:35:01.635Z,-0.9
2018-12-29T02:36:01.599Z,-0.89
2018-12-29T02:37:01.594Z,-0.88
2018-12-29T02:38:01.506Z,-0.9
2018-12-29T02:39:02.070Z,-0.9
2018-12-29T02:40:01.650Z,-0.89
2018-12-29T02:41:02.063Z,-0.91
2018-12-29T02:42:01.769Z,-0.93
2018-12-29T02:43:01.686Z,-0.91
2018-12-29T02:44:01.791Z,-0.94
2018-12-29T02:45:01.547Z,-0.92
2018-12-29T02:46:01.798Z,-0.92
2018-12-29T02:47:01.814Z,-0.93
2018-12-29T02:48:02.035Z,-0.93
2018-12-29T02:49:01.885Z,-0.89
2018-12-29T02:50:01.649Z,-0.9
2018-12-29T02:51:01.443Z,-0.86
2018-12-29T02:52:01.854Z,-0.87
2018-12-29T02:53:01.677Z,-0.93
2018-12-29T02:54:01.574Z,-0.88
2018-12-29T02:55:01.845Z,-0.87
2018-12-29T02:56:01.779Z,-0.87
2018-12-29T02:57:01.766Z,-0.89
2018-12-29T02:58:01.584Z,-0.92
2018-12-29T02:59:01.782Z,-0.92
2018-12-29T03:00:01.497Z,-0.88
2018-12-29T03:01:01.768Z,-0.87
2018-12-29T03:02:01.510Z,-0.93
2018-12-29T03:03:01.527Z,-0.86
2018-12-29T03:04:02.038Z,-0.87
2018-12-29T03:05:01.709Z,-0.86
2018-12-29T03:06:01.591Z,-0.88
2018-12-29T03:07:02.008Z,-0.85
2018-12-29T03:08:01.661Z,-0.83
2018-12-29T03:09:01.459Z,-0.81
2018-12-29T03:10:01.878Z,-0.84
2018-12-29T03:11:01.952Z,-0.84
2018-12-29T03:12:02.067Z,-0.84
2018-12-29T03:13:01.590Z,-0.84
2018-12-29T03:14:01.869Z,-0.87
2018-12-29T03:15:01.559Z,-0.87
2018-12-29T03:16:02.061Z,-0.88
2018-12-29T03:17:01.674Z,-0.87
2018-12-29T03:18:01.658Z,-0.86
2018-12-29T03:19:01.744Z,-0.84
2018-12-29T03:20:02.260Z,-0.81
2018-12-29T03:21:01.547Z,-0.8
2018-12-29T03:22:01.718Z,-0.85
2018-12-29T03:23:01.683Z,-0.84
2018-12-29T03:24:01.553Z,-0.78
2018-12-29T03:25:01.547Z,-0.81
2018-12-29T03:26:01.476Z,-0.82
2018-12-29T03:27:01.577Z,-0.81
2018-12-29T03:28:01.632Z,-0.83
2018-12-29T03:29:01.611Z,-0.79
2018-12-29T03:30:01.564Z,-0.78
2018-12-29T03:31:01.609Z,-0.74
2018-12-29T03:32:01.563Z,-0.75
2018-12-29T03:33:01.634Z,-0.74
2018-12-29T03:34:01.628Z,-0.78
2018-12-29T03:35:02.252Z,-0.76
2018-12-29T03:36:01.728Z,-0.76
2018-12-29T03:37:01.424Z,-0.77
2018-12-29T03:38:01.427Z,-0.78
2018-12-29T03:39:01.437Z,-0.71
2018-12-29T03:40:01.613Z,-0.74
2018-12-29T03:41:01.883Z,-0.76
2018-12-29T03:42:01.662Z,-0.73
2018-12-29T03:43:01.431Z,-0.76
2018-12-29T03:44:01.406Z,-0.84
2018-12-29T03:45:01.786Z,-0.82
2018-12-29T03:46:01.419Z,-0.79
2018-12-29T03:47:01.527Z,-0.78
2018-12-29T03:48:01.658Z,-0.76
2018-12-29T03:49:01.431Z,-0.71
2018-12-29T03:50:01.382Z,-0.74
2018-12-29T03:51:01.864Z,-0.74
2018-12-29T03:52:01.717Z,-0.74
2018-12-29T03:53:02.257Z,-0.74
2018-12-29T03:54:01.403Z,-0.73
2018-12-29T03:55:01.747Z,-0.75
2018-12-29T03:56:01.527Z,-0.74
2018-12-29T03:57:01.346Z,-0.71
2018-12-29T03:58:01.386Z,-0.71
2018-12-29T03:59:01.455Z,-0.68
2018-12-29T04:00:01.571Z,-0.69
2018-12-29T04:01:01.538Z,-0.7
2018-12-29T04:02:01.468Z,-0.71
2018-12-29T04:03:01.404Z,-0.73
2018-12-29T04:04:01.362Z,-0.74
2018-12-29T04:05:01.674Z,-0.75
2018-12-29T04:06:01.413Z,-0.74
2018-12-29T04:07:01.365Z,-0.75
2018-12-29T04:08:01.410Z,-0.75
2018-12-29T04:09:01.468Z,-0.76
2018-12-29T04:10:01.798Z,-0.75
2018-12-29T04:11:01.416Z,-0.75
2018-12-29T04:12:01.554Z,-0.75
2018-12-29T04:13:01.474Z,-0.77
2018-12-29T04:14:01.373Z,-0.74
2018-12-29T04:15:01.454Z,-0.75
2018-12-29T04:16:01.480Z,-0.75
2018-12-29T04:17:01.403Z,-0.75
2018-12-29T04:18:01.457Z,-0.77
2018-12-29T04:19:02.233Z,-0.75
2018-12-29T04:20:01.622Z,-0.74
2018-12-29T04:21:01.659Z,-0.75
2018-12-29T04:22:01.403Z,-0.74
2018-12-29T04:23:01.377Z,-0.78
2018-12-29T04:24:02.191Z,-0.75
2018-12-29T04:25:01.639Z,-0.74
2018-12-29T04:26:01.397Z,-0.74
2018-12-29T04:27:01.559Z,-0.74
2018-12-29T04:28:02.160Z,-0.73
2018-12-29T04:29:01.510Z,-0.77
2018-12-29T04:30:01.451Z,-0.73
2018-12-29T04:31:01.557Z,-0.71
2018-12-29T04:32:01.503Z,-0.72
2018-12-29T04:33:01.739Z,-0.69
2018-12-29T04:34:01.783Z,-0.7
2018-12-29T04:35:01.879Z,-0.7
2018-12-29T04:36:01.532Z,-0.69
2018-12-29T04:37:01.643Z,-0.72
2018-12-29T04:38:01.350Z,-0.72
2018-12-29T04:39:01.322Z,-0.71
2018-12-29T04:40:01.531Z,-0.68
2018-12-29T04:41:01.668Z,-0.7
2018-12-29T04:42:01.365Z,-0.71
2018-12-29T04:43:01.419Z,-0.67
2018-12-29T04:44:01.481Z,-0.72
2018-12-29T04:45:01.636Z,-0.79
2018-12-29T04:46:05.731Z,-0.74
2018-12-29T04:47:01.582Z,-0.75
2018-12-29T04:48:01.316Z,-0.66
2018-12-29T04:49:01.470Z,-0.69
2018-12-29T04:50:01.641Z,-0.72
2018-12-29T04:51:01.328Z,-0.72
2018-12-29T04:52:01.571Z,-0.71
2018-12-29T04:53:01.313Z,-0.66
2018-12-29T04:54:01.419Z,-0.66
2018-12-29T04:55:01.668Z,-0.66
2018-12-29T04:56:01.445Z,-0.67
2018-12-29T04:57:01.663Z,-0.69
2018-12-29T04:58:01.534Z,-0.69
2018-12-29T04:59:01.605Z,-0.69
2018-12-29T05:00:01.526Z,-0.75
2018-12-29T05:01:01.433Z,-0.66
2018-12-29T05:02:01.298Z,-0.74
2018-12-29T05:03:02.112Z,-0.66
2018-12-29T05:04:01.470Z,-0.7
2018-12-29T05:05:01.372Z,-0.66
2018-12-29T05:06:01.309Z,-0.7
2018-12-29T05:07:01.405Z,-0.71
2018-12-29T05:08:01.493Z,-0.73
2018-12-29T05:09:01.367Z,-0.69
2018-12-29T05:10:01.747Z,-0.63
2018-12-29T05:11:01.352Z,-0.69
2018-12-29T05:12:01.525Z,-0.66
2018-12-29T05:13:01.582Z,-0.57
2018-12-29T05:14:01.438Z,-0.57
2018-12-29T05:15:01.467Z,-0.67
2018-12-29T05:16:01.341Z,-0.57
2018-12-29T05:17:01.486Z,-0.58
2018-12-29T05:18:01.602Z,-0.6
2018-12-29T05:19:01.576Z,-0.62
2018-12-29T05:20:01.276Z,-0.61
2018-12-29T05:21:01.445Z,-0.62
2018-12-29T05:22:01.323Z,-0.58
2018-12-29T05:23:01.368Z,-0.59
2018-12-29T05:24:01.445Z,-0.56
2018-12-29T05:25:01.655Z,-0.62
2018-12-29T05:26:01.420Z,-0.68
2018-12-29T05:27:01.835Z,-0.69
2018-12-29T05:28:01.729Z,-0.69
2018-12-29T05:29:01.478Z,-0.69
2018-12-29T05:30:01.276Z,-0.7
2018-12-29T05:31:01.678Z,-0.59
2018-12-29T05:32:01.290Z,-0.61
2018-12-29T05:33:01.555Z,-0.56
2018-12-29T05:34:01.328Z,-0.58
2018-12-29T05:35:01.227Z,-0.67
2018-12-29T05:36:01.253Z,-0.65
2018-12-29T05:37:01.281Z,-0.65
2018-12-29T05:38:01.535Z,-0.64
2018-12-29T05:39:01.486Z,-0.64
2018-12-29T05:40:01.310Z,-0.59
2018-12-29T05:41:01.331Z,-0.57
2018-12-29T05:42:01.322Z,-0.56
2018-12-29T05:43:01.246Z,-0.54
2018-12-29T05:44:01.276Z,-0.54
2018-12-29T05:45:01.265Z,-0.54
2018-12-29T05:46:01.291Z,-0.56
2018-12-29T05:47:01.300Z,-0.59
2018-12-29T05:48:01.303Z,-0.57
2018-12-29T05:49:01.276Z,-0.57
2018-12-29T05:50:01.385Z,-0.65
2018-12-29T05:51:01.299Z,-0.58
2018-12-29T05:52:01.227Z,-0.56
2018-12-29T05:53:01.277Z,-0.54
2018-12-29T05:54:01.290Z,-0.56
2018-12-29T05:55:01.411Z,-0.58
2018-12-29T05:56:01.190Z,-0.54
2018-12-29T05:57:01.247Z,-0.55
2018-12-29T05:58:01.275Z,-0.56
2018-12-29T05:59:01.499Z,-0.59
2018-12-29T06:00:01.665Z,-0.58
2018-12-29T06:01:02.031Z,-0.58
2018-12-29T06:02:01.254Z,-0.57
2018-12-29T06:03:01.502Z,-0.59
2018-12-29T06:04:01.513Z,-0.61
2018-12-29T06:05:01.517Z,-0.58
2018-12-29T06:06:01.230Z,-0.59
2018-12-29T06:07:01.239Z,-0.58
2018-12-29T06:08:01.437Z,-0.61
2018-12-29T06:09:01.287Z,-0.61
2018-12-29T06:10:01.413Z,-0.63
2018-12-29T06:11:01.564Z,-0.62
2018-12-29T06:12:01.633Z,-0.61
2018-12-29T06:13:01.200Z,-0.64
2018-12-29T06:14:01.426Z,-0.64
2018-12-29T06:15:01.368Z,-0.62
2018-12-29T06:16:01.659Z,-0.62
2018-12-29T06:17:01.297Z,-0.61
2018-12-29T06:18:01.546Z,-0.63
2018-12-29T06:19:01.513Z,-0.59
2018-12-29T06:20:01.733Z,-0.6
2018-12-29T06:21:01.499Z,-0.62
2018-12-29T06:22:01.604Z,-0.6
2018-12-29T06:23:01.624Z,-0.58
2018-12-29T06:24:01.220Z,-0.49
2018-12-29T06:25:01.568Z,-0.51
2018-12-29T06:26:01.396Z,-0.55
2018-12-29T06:27:01.607Z,-0.54
2018-12-29T06:28:01.202Z,-0.53
2018-12-29T06:29:01.551Z,-0.54
2018-12-29T06:30:01.458Z,-0.55
2018-12-29T06:31:01.239Z,-0.56
2018-12-29T06:32:01.348Z,-0.55
2018-12-29T06:33:01.187Z,-0.6
2018-12-29T06:34:01.838Z,-0.56
2018-12-29T06:35:01.358Z,-0.57
2018-12-29T06:36:01.174Z,-0.56
2018-12-29T06:37:01.380Z,-0.53
2018-12-29T06:38:01.220Z,-0.56
2018-12-29T06:39:01.433Z,-0.57
2018-12-29T06:40:01.164Z,-0.57
2018-12-29T06:41:01.196Z,-0.57
2018-12-29T06:42:01.180Z,-0.54
2018-12-29T06:43:01.629Z,-0.52
2018-12-29T06:44:01.213Z,-0.54
2018-12-29T06:45:01.449Z,-0.55
2018-12-29T06:46:01.279Z,-0.52
2018-12-29T06:47:01.191Z,-0.57
2018-12-29T06:48:01.769Z,-0.54
2018-12-29T06:49:01.709Z,-0.56
2018-12-29T06:50:01.278Z,-0.55
2018-12-29T06:51:01.518Z,-0.54
2018-12-29T06:52:01.252Z,-0.56
2018-12-29T06:53:01.317Z,-0.54
2018-12-29T06:54:01.205Z,-0.53
2018-12-29T06:55:01.476Z,-0.55
2018-12-29T06:56:01.335Z,-0.59
2018-12-29T06:57:01.292Z,-0.56
2018-12-29T06:58:01.442Z,-0.63
2018-12-29T06:59:01.923Z,-0.59
2018-12-29T07:00:01.160Z,-0.59
2018-12-29T07:01:01.427Z,-0.56
2018-12-29T07:02:01.468Z,-0.57
2018-12-29T07:03:01.553Z,-0.59
2018-12-29T07:04:01.342Z,-0.59
2018-12-29T07:05:01.302Z,-0.57
2018-12-29T07:06:01.972Z,-0.59
2018-12-29T07:07:01.430Z,-0.62
2018-12-29T07:08:01.147Z,-0.58
2018-12-29T07:09:01.517Z,-0.6
2018-12-29T07:10:01.136Z,-0.58
2018-12-29T07:11:01.422Z,-0.55
2018-12-29T07:12:01.499Z,-0.56
2018-12-29T07:13:01.490Z,-0.57
2018-12-29T07:14:01.307Z,-0.54
2018-12-29T07:15:01.241Z,-0.5
2018-12-29T07:16:01.202Z,-0.49
2018-12-29T07:17:01.142Z,-0.48
2018-12-29T07:18:01.249Z,-0.5
2018-12-29T07:19:01.233Z,-0.52
2018-12-29T07:20:01.279Z,-0.5
2018-12-29T07:21:01.206Z,-0.49
2018-12-29T07:22:01.099Z,-0.5
2018-12-29T07:23:01.397Z,-0.5
2018-12-29T07:24:01.110Z,-0.49
2018-12-29T07:25:01.115Z,-0.49
2018-12-29T07:26:01.241Z,-0.5
2018-12-29T07:27:01.133Z,-0.47
2018-12-29T07:28:01.087Z,-0.46
2018-12-29T07:29:01.314Z,-0.47
2018-12-29T07:30:01.116Z,-0.47
2018-12-29T07:31:01.190Z,-0.52
2018-12-29T07:32:01.427Z,-0.46
2018-12-29T07:33:01.334Z,-0.52
2018-12-29T07:34:01.352Z,-0.52
2018-12-29T07:35:01.098Z,-0.53
2018-12-29T07:36:01.165Z,-0.49
2018-12-29T07:37:01.240Z,-0.5
2018-12-29T07:38:01.124Z,-0.5
2018-12-29T07:39:01.442Z,-0.53
2018-12-29T07:40:01.378Z,-0.53
2018-12-29T07:41:01.226Z,-0.51
2018-12-29T07:42:01.137Z,-0.49
2018-12-29T07:43:01.962Z,-0.49
2018-12-29T07:44:01.906Z,-0.49
2018-12-29T07:45:01.139Z,-0.51
2018-12-29T07:46:01.211Z,-0.52
2018-12-29T07:47:01.678Z,-0.5
2018-12-29T07:48:01.063Z,-0.5
2018-12-29T07:49:01.890Z,-0.55
2018-12-29T07:50:01.225Z,-0.53
2018-12-29T07:51:01.095Z,-0.5
2018-12-29T07:52:01.365Z,-0.5
2018-12-29T07:53:01.279Z,-0.47
2018-12-29T07:54:01.219Z,-0.47
2018-12-29T07:55:01.213Z,-0.48
2018-12-29T07:56:01.167Z,-0.49
2018-12-29T07:57:01.130Z,-0.47
2018-12-29T07:58:01.137Z,-0.46
2018-12-29T07:59:00.863Z,-0.45
2018-12-29T08:00:01.330Z,-0.45
2018-12-29T08:01:01.188Z,-0.43
2018-12-29T08:02:01.366Z,-0.43
2018-12-29T08:03:01.514Z,-0.45
2018-12-29T08:04:01.111Z,-0.45
2018-12-29T08:05:01.395Z,-0.44
2018-12-29T08:06:01.098Z,-0.44
2018-12-29T08:07:01.256Z,-0.42
2018-12-29T08:08:01.068Z,-0.37
2018-12-29T08:09:01.089Z,-0.44
2018-12-29T08:10:01.316Z,-0.39
2018-12-29T08:11:01.125Z,-0.41
2018-12-29T08:12:01.557Z,-0.37
2018-12-29T08:13:01.561Z,-0.37
2018-12-29T08:14:01.454Z,-0.34
2018-12-29T08:15:01.375Z,-0.35
2018-12-29T08:16:01.331Z,-0.36
2018-12-29T08:17:01.317Z,-0.34
2018-12-29T08:18:01.293Z,-0.37
2018-12-29T08:19:01.050Z,-0.34
2018-12-29T08:20:01.637Z,-0.35
2018-12-29T08:21:01.934Z,-0.37
2018-12-29T08:22:01.137Z,-0.35
2018-12-29T08:23:01.122Z,-0.4
2018-12-29T08:24:01.277Z,-0.38
2018-12-29T08:25:01.247Z,-0.35
2018-12-29T08:26:01.046Z,-0.34
2018-12-29T08:27:01.561Z,-0.34
2018-12-29T08:28:01.317Z,-0.32
2018-12-29T08:29:01.233Z,-0.31
2018-12-29T08:30:01.171Z,-0.28
2018-12-29T08:31:01.332Z,-0.28
2018-12-29T08:32:01.220Z,-0.32
2018-12-29T08:33:01.258Z,-0.32
2018-12-29T08:34:01.433Z,-0.29
2018-12-29T08:35:01.338Z,-0.28
2018-12-29T08:36:01.631Z,-0.24
2018-12-29T08:37:01.015Z,-0.23
2018-12-29T08:38:01.408Z,-0.23
2018-12-29T08:39:01.525Z,-0.25
2018-12-29T08:40:01.022Z,-0.3
2018-12-29T08:41:01.124Z,-0.28
2018-12-29T08:42:01.107Z,-0.27
2018-12-29T08:43:01.061Z,-0.23
2018-12-29T08:44:01.293Z,-0.2
2018-12-29T08:45:01.177Z,-0.21
2018-12-29T08:46:01.120Z,-0.22
2018-12-29T08:47:05.095Z,-0.22
2018-12-29T08:48:01.424Z,-0.22
2018-12-29T08:49:01.067Z,-0.21
2018-12-29T08:50:01.146Z,-0.21
2018-12-29T08:51:01.467Z,-0.2
2018-12-29T08:52:01.325Z,-0.21
2018-12-29T08:53:01.051Z,-0.2
2018-12-29T08:54:01.054Z,-0.18
2018-12-29T08:55:01.119Z,-0.17
2018-12-29T08:56:01.259Z,-0.15
2018-12-29T08:57:01.080Z,-0.16
2018-12-29T08:58:00.999Z,-0.16
2018-12-29T08:59:01.116Z,-0.18
2018-12-29T09:00:01.193Z,-0.15
2018-12-29T09:01:00.956Z,-0.13
2018-12-29T09:02:01.367Z,-0.11
2018-12-29T09:03:01.195Z,-0.13
2018-12-29T09:04:01.064Z,-0.13
2018-12-29T09:05:01.156Z,-0.11
2018-12-29T09:06:01.108Z,-0.16
2018-12-29T09:07:01.048Z,-0.15
2018-12-29T09:08:01.088Z,-0.16
2018-12-29T09:09:00.942Z,-0.14
2018-12-29T09:10:01.173Z,-0.09
2018-12-29T09:11:00.941Z,-0.12
2018-12-29T09:12:01.235Z,-0.12
2018-12-29T09:13:01.317Z,-0.1
2018-12-29T09:14:01.447Z,-0.13
2018-12-29T09:15:01.635Z,-0.1
2018-12-29T09:16:01.405Z,-0.08
2018-12-29T09:17:01.136Z,-0.09
2018-12-29T09:18:01.555Z,-0.06
2018-12-29T09:19:01.156Z,-0.06
2018-12-29T09:20:01.779Z,-0.03
2018-12-29T09:21:01.175Z,-0.03
2018-12-29T09:22:01.156Z,0
2018-12-29T09:23:01.597Z,-0.02
2018-12-29T09:24:01.154Z,0.04
2018-12-29T09:25:01.112Z,0.07
2018-12-29T09:26:00.981Z,0.08
2018-12-29T09:27:01.058Z,0.14
2018-12-29T09:28:01.183Z,0.18
2018-12-29T09:29:01.376Z,0.18
2018-12-29T09:30:01.214Z,0.17
2018-12-29T09:31:01.153Z,0.2
2018-12-29T09:32:01.143Z,0.22
2018-12-29T09:33:01.775Z,0.2
2018-12-29T09:34:01.246Z,0.28
2018-12-29T09:35:01.307Z,0.25
2018-12-29T09:36:01.176Z,0.29
2018-12-29T09:37:01.133Z,0.26
2018-12-29T09:38:00.900Z,0.16
2018-12-29T09:39:00.979Z,0.13
2018-12-29T09:40:01.748Z,0.18
2018-12-29T09:41:01.300Z,0.2
2018-12-29T09:42:01.152Z,0.23
2018-12-29T09:43:01.106Z,0.29
2018-12-29T09:44:01.726Z,0.27
2018-12-29T09:45:01.237Z,0.22
2018-12-29T09:46:01.283Z,0.22
2018-12-29T09:47:01.085Z,0.21
2018-12-29T09:48:01.055Z,0.18
2018-12-29T09:49:01.973Z,0.21
2018-12-29T09:50:00.932Z,0.26
2018-12-29T09:51:01.014Z,0.24
2018-12-29T09:52:01.597Z,0.24
2018-12-29T09:53:04.150Z,0.25
2018-12-29T09:54:00.979Z,0.27
2018-12-29T09:55:00.969Z,0.28
2018-12-29T09:56:01.168Z,0.3
2018-12-29T09:57:01.195Z,0.25
2018-12-29T09:58:01.124Z,0.26
2018-12-29T09:59:00.900Z,0.34
2018-12-29T10:00:01.123Z,0.3
2018-12-29T10:01:01.260Z,0.29
2018-12-29T10:02:01.230Z,0.27
2018-12-29T10:03:01.248Z,0.31
2018-12-29T10:04:00.987Z,0.31
2018-12-29T10:05:01.721Z,0.29
2018-12-29T10:06:01.173Z,0.32
2018-12-29T10:07:01.197Z,0.29
2018-12-29T10:08:01.136Z,0.3
2018-12-29T10:09:01.088Z,0.32
2018-12-29T10:10:01.075Z,0.27
2018-12-29T10:11:01.222Z,0.26
2018-12-29T10:12:01.228Z,0.26
2018-12-29T10:13:00.947Z,0.25
2018-12-29T10:14:00.920Z,0.24
2018-12-29T10:15:01.010Z,0.24
2018-12-29T10:16:01.139Z,0.24
2018-12-29T10:17:01.712Z,0.22
2018-12-29T10:18:01.049Z,0.24
2018-12-29T10:19:01.208Z,0.27
2018-12-29T10:20:01.130Z,0.28
2018-12-29T10:21:01.007Z,0.28
2018-12-29T10:22:01.575Z,0.29
2018-12-29T10:23:01.206Z,0.29
2018-12-29T10:24:01.770Z,0.25
2018-12-29T10:25:01.433Z,0.24
2018-12-29T10:26:00.847Z,0.28
2018-12-29T10:27:01.134Z,0.31
2018-12-29T10:28:01.286Z,0.32
2018-12-29T10:29:01.167Z,0.31
2018-12-29T10:30:00.946Z,0.31
2018-12-29T10:31:02.142Z,0.34
2018-12-29T10:32:01.080Z,0.32
2018-12-29T10:33:01.156Z,0.34
2018-12-29T10:34:01.257Z,0.34
2018-12-29T10:35:00.816Z,0.37
2018-12-29T10:36:01.672Z,0.36
2018-12-29T10:37:00.950Z,0.35
2018-12-29T10:38:00.988Z,0.35
2018-12-29T10:39:01.270Z,0.39
2018-12-29T10:40:00.885Z,0.41
2018-12-29T10:41:01.318Z,0.44
2018-12-29T10:42:01.018Z,0.4
2018-12-29T10:43:00.884Z,0.35
2018-12-29T10:44:01.082Z,0.38
2018-12-29T10:45:01.399Z,0.4
2018-12-29T10:46:01.182Z,0.39
2018-12-29T10:47:01.038Z,0.44
2018-12-29T10:48:01.559Z,0.4
2018-12-29T10:49:01.242Z,0.4
2018-12-29T10:50:02.215Z,0.4
2018-12-29T10:51:00.828Z,0.42
2018-12-29T10:52:03.529Z,0.44
2018-12-29T10:53:01.213Z,0.51
2018-12-29T10:54:01.581Z,0.49
2018-12-29T10:55:00.823Z,0.45
2018-12-29T10:56:00.873Z,0.45
2018-12-29T10:57:01.188Z,0.44
2018-12-29T10:58:01.444Z,0.43
2018-12-29T10:59:01.040Z,0.45
2018-12-29T11:00:01.710Z,0.43
2018-12-29T11:01:01.070Z,0.48
2018-12-29T11:02:06.575Z,0.46
2018-12-29T11:03:01.041Z,0.45
2018-12-29T11:04:00.747Z,0.46
2018-12-29T11:05:00.933Z,0.43
2018-12-29T11:06:01.857Z,0.46
2018-12-29T11:07:00.860Z,0.47
2018-12-29T11:08:01.357Z,0.43
2018-12-29T11:09:00.972Z,0.42
2018-12-29T11:10:00.899Z,0.42
2018-12-29T11:11:01.075Z,0.43
2018-12-29T11:12:01.044Z,0.4
2018-12-29T11:13:01.091Z,0.4
2018-12-29T11:14:01.602Z,0.42
2018-12-29T11:15:00.964Z,0.39
2018-12-29T11:16:01.074Z,0.42
2018-12-29T11:17:04.314Z,0.42
2018-12-29T11:18:01.202Z,0.39
2018-12-29T11:19:01.977Z,0.4
2018-12-29T11:20:01.140Z,0.43
2018-12-29T11:21:02.749Z,0.43
2018-12-29T11:22:01.669Z,0.36
2018-12-29T11:23:01.602Z,0.4
2018-12-29T11:24:00.979Z,0.39
2018-12-29T11:25:01.221Z,0.4
2018-12-29T11:26:01.704Z,0.35
2018-12-29T11:27:01.151Z,0.25
2018-12-29T11:28:00.951Z,0.29
2018-12-29T11:29:00.810Z,0.39
2018-12-29T11:30:01.077Z,0.43
2018-12-29T11:31:01.287Z,0.41
2018-12-29T11:32:01.098Z,0.36
2018-12-29T11:33:01.146Z,0.37
2018-12-29T11:34:01.090Z,0.33
2018-12-29T11:35:00.883Z,0.37
2018-12-29T11:36:01.136Z,0.31
2018-12-29T11:37:01.164Z,0.34
2018-12-29T11:38:00.899Z,0.39
2018-12-29T11:39:01.135Z,0.39
2018-12-29T11:40:01.021Z,0.4
2018-12-29T11:41:01.023Z,0.4
2018-12-29T11:42:00.726Z,0.35
2018-12-29T11:43:00.967Z,0.32
2018-12-29T11:44:00.782Z,0.38
2018-12-29T11:45:01.040Z,0.38
2018-12-29T11:46:00.785Z,0.43
2018-12-29T11:47:00.773Z,0.41
2018-12-29T11:48:01.071Z,0.37
2018-12-29T11:49:02.259Z,0.36
2018-12-29T11:50:01.359Z,0.41
2018-12-29T11:51:02.197Z,0.43
2018-12-29T11:52:01.184Z,0.46
2018-12-29T11:53:00.778Z,0.43
2018-12-29T11:54:00.803Z,0.48
2018-12-29T11:55:01.378Z,0.45
2018-12-29T11:56:01.112Z,0.4
2018-12-29T11:57:00.930Z,0.41
2018-12-29T11:58:00.994Z,0.39
2018-12-29T11:59:01.145Z,0.42
2018-12-29T12:00:02.057Z,0.45
2018-12-29T12:01:00.833Z,0.48
2018-12-29T12:02:01.147Z,0.48
2018-12-29T12:03:00.817Z,0.43
2018-12-29T12:04:00.944Z,0.45
2018-12-29T12:05:00.941Z,0.5
2018-12-29T12:06:00.783Z,0.5
2018-12-29T12:07:00.856Z,0.49
2018-12-29T12:08:00.841Z,0.5
2018-12-29T12:09:01.842Z,0.5
2018-12-29T12:10:00.766Z,0.56
2018-12-29T12:11:00.792Z,0.44
2018-12-29T12:12:00.803Z,0.44
2018-12-29T12:13:01.588Z,0.43
2018-12-29T12:14:00.765Z,0.38
2018-12-29T12:15:01.210Z,0.39
2018-12-29T12:16:00.823Z,0.36
2018-12-29T12:17:01.563Z,0.39
2018-12-29T12:18:02.033Z,0.4
2018-12-29T12:19:00.796Z,0.4
2018-12-29T12:20:01.316Z,0.42
2018-12-29T12:21:01.092Z,0.45
2018-12-29T12:22:00.918Z,0.51
2018-12-29T12:23:00.964Z,0.49
2018-12-29T12:24:01.433Z,0.5
2018-12-29T12:25:00.957Z,0.54
2018-12-29T12:26:01.116Z,0.56
2018-12-29T12:27:00.948Z,0.57
2018-12-29T12:28:01.578Z,0.59
2018-12-29T12:29:02.453Z,0.59
2018-12-29T12:30:01.151Z,0.52
2018-12-29T12:31:01.230Z,0.45
2018-12-29T12:32:00.715Z,0.51
2018-12-29T12:33:01.427Z,0.52
2018-12-29T12:34:01.879Z,0.54
2018-12-29T12:35:00.844Z,0.56
2018-12-29T12:36:01.020Z,0.6
2018-12-29T12:37:01.010Z,0.57
2018-12-29T12:38:00.814Z,0.63
2018-12-29T12:39:02.707Z,0.63
2018-12-29T12:40:01.005Z,0.56
2018-12-29T12:41:00.823Z,0.54
2018-12-29T12:42:00.757Z,0.55
2018-12-29T12:43:00.711Z,0.6
2018-12-29T12:44:01.097Z,0.58
2018-12-29T12:45:00.915Z,0.57
2018-12-29T12:46:00.944Z,0.59
2018-12-29T12:47:00.910Z,0.56
2018-12-29T12:48:05.596Z,0.52
2018-12-29T12:49:00.901Z,0.48
2018-12-29T12:50:01.767Z,0.49
2018-12-29T12:51:01.163Z,0.5
2018-12-29T12:52:00.916Z,0.47
2018-12-29T12:53:00.929Z,0.45
2018-12-29T12:54:00.906Z,0.44
2018-12-29T12:55:00.731Z,0.48
2018-12-29T12:56:01.422Z,0.44
2018-12-29T12:57:02.420Z,0.42
2018-12-29T12:58:01.964Z,0.44
2018-12-29T12:59:00.926Z,0.47
2018-12-29T13:00:02.127Z,0.45
2018-12-29T13:01:01.986Z,0.44
2018-12-29T13:02:01.796Z,0.44